createdAt,value
2022-10-31T00:06:45.464Z,100.00
2022-10-31T00:10:03.109Z,100.00
2022-10-31T00:13:23.558Z,100.00
2022-10-31T00:16:39.406Z,100.00
2022-10-31T00:23:12.874Z,100.00
2022-10-31T00:26:29.683Z,100.00
2022-10-31T00:29:47.332Z,100.00
2022-10-31T00:33:03.609Z,100.00
2022-10-31T00:36:23.471Z,100.00
2022-10-31T00:39:37.271Z,100.00
2022-10-31T00:42:53.464Z,100.00
2022-10-31T00:46:10.457Z,100.00
2022-10-31T00:49:26.548Z,100.00
2022-10-31T00:52:42.884Z,100.00
2022-10-31T00:55:59.267Z,100.00
2022-10-31T00:59:15.505Z,100.00
2022-10-31T01:02:32.527Z,100.00
2022-10-31T01:05:49.676Z,100.00
2022-10-31T01:09:05.731Z,100.00
2022-10-31T01:12:21.902Z,100.00
2022-10-31T01:15:39.568Z,100.00
2022-10-31T01:18:57.553Z,100.00
2022-10-31T01:22:17.972Z,100.00
2022-10-31T01:25:34.117Z,100.00
2022-10-31T01:28:55.433Z,100.00
2022-10-31T01:37:04.145Z,100.00
2022-10-31T01:40:22.012Z,100.00
2022-10-31T01:43:54.005Z,100.00
2022-10-31T01:52:10.853Z,100.00
2022-10-31T01:55:31.757Z,100.00
2022-10-31T01:58:48.826Z,100.00
2022-10-31T02:02:06.389Z,100.00
2022-10-31T02:08:40.404Z,100.00
2022-10-31T02:11:59.737Z,100.00
2022-10-31T02:15:18.504Z,100.00
2022-10-31T02:18:37.334Z,100.00
2022-10-31T02:21:58.609Z,100.00
2022-10-31T02:25:31.268Z,100.00
2022-10-31T02:29:16.388Z,100.00
2022-10-31T02:36:02.759Z,100.00
2022-10-31T02:39:24.972Z,100.00
2022-10-31T02:42:47.032Z,100.00
2022-10-31T02:46:11.700Z,100.00
2022-10-31T02:52:44.446Z,100.00
2022-10-31T02:56:11.140Z,100.00
2022-10-31T02:59:28.660Z,100.00
2022-10-31T03:03:04.235Z,100.00
2022-10-31T03:06:26.226Z,100.00
2022-10-31T03:09:48.982Z,100.00
2022-10-31T03:13:11.341Z,100.00
2022-10-31T03:16:32.426Z,100.00
2022-10-31T03:19:54.834Z,100.00
2022-10-31T03:23:13.691Z,100.00
2022-10-31T03:26:32.862Z,100.00
2022-10-31T03:29:52.499Z,100.00
2022-10-31T03:33:13.388Z,100.00
2022-10-31T03:36:31.109Z,100.00
2022-10-31T03:39:50.088Z,100.00
2022-10-31T03:43:13.391Z,100.00
2022-10-31T03:46:30.141Z,100.00
2022-10-31T03:49:48.406Z,100.00
2022-10-31T03:53:10.752Z,100.00
2022-10-31T03:56:32.774Z,100.00
2022-10-31T03:59:54.311Z,100.00
2022-10-31T04:03:16.663Z,100.00
2022-10-31T04:06:34.550Z,100.00
2022-10-31T04:09:54.989Z,100.00
2022-10-31T04:13:15.669Z,100.00
2022-10-31T04:16:37.298Z,100.00
2022-10-31T04:19:53.841Z,100.00
2022-10-31T04:23:14.679Z,100.00
2022-10-31T04:26:30.117Z,100.00
2022-10-31T04:29:49.891Z,100.00
2022-10-31T04:33:07.227Z,100.00
2022-10-31T04:36:24.210Z,100.00
2022-10-31T04:39:40.499Z,100.00
2022-10-31T04:42:58.988Z,100.00
2022-10-31T04:46:17.633Z,100.00
2022-10-31T04:49:34.194Z,100.00
2022-10-31T04:52:52.344Z,100.00
2022-10-31T04:56:11.445Z,100.00
2022-10-31T04:59:29.629Z,100.00
2022-10-31T05:07:51.426Z,100.00
2022-10-31T05:11:11.093Z,100.00
2022-10-31T05:14:25.260Z,100.00
2022-10-31T05:23:00.343Z,100.00
2022-10-31T05:26:14.779Z,100.00
2022-10-31T05:29:32.780Z,100.00
2022-10-31T05:32:52.187Z,100.00
2022-10-31T05:40:09.443Z,100.00
2022-10-31T05:43:25.766Z,100.00
2022-10-31T05:46:47.131Z,100.00
2022-10-31T05:50:08.330Z,100.00
2022-10-31T05:53:40.789Z,100.00
2022-10-31T05:56:59.190Z,100.00
2022-10-31T06:00:24.998Z,100.00
2022-10-31T06:07:04.544Z,100.00
2022-10-31T06:10:22.763Z,100.00
2022-10-31T06:13:41.224Z,100.00
2022-10-31T06:16:59.335Z,100.00
2022-10-31T06:23:51.699Z,100.00
2022-10-31T06:27:28.906Z,100.00
2022-10-31T06:30:48.515Z,100.00
2022-10-31T06:34:05.542Z,100.00
2022-10-31T06:37:26.891Z,100.00
2022-10-31T06:40:49.556Z,100.00
2022-10-31T06:44:12.932Z,100.00
2022-10-31T06:48:10.933Z,100.00
2022-10-31T06:51:21.158Z,100.00
2022-10-31T06:54:41.103Z,100.00
2022-10-31T06:58:06.514Z,100.00
2022-10-31T07:01:26.435Z,100.00
2022-10-31T07:08:11.686Z,100.00
2022-10-31T07:11:34.620Z,99.41
2022-10-31T07:14:57.051Z,99.78
2022-10-31T07:18:23.582Z,100.00
2022-10-31T07:25:07.392Z,100.00
2022-10-31T07:28:55.567Z,100.00
2022-10-31T07:32:15.770Z,100.00
2022-10-31T07:35:37.120Z,100.00
2022-10-31T07:38:54.141Z,100.00
2022-10-31T07:42:15.569Z,100.00
2022-10-31T07:45:33.931Z,100.00
2022-10-31T07:49:08.742Z,100.00
2022-10-31T07:52:49.696Z,100.00
2022-10-31T07:56:29.272Z,100.00
2022-10-31T07:59:58.726Z,100.00
2022-10-31T08:03:23.901Z,100.00
2022-10-31T08:06:59.305Z,100.00
2022-10-31T08:10:20.207Z,100.00
2022-10-31T08:13:36.705Z,100.00
2022-10-31T08:16:53.780Z,100.00
2022-10-31T08:20:18.419Z,100.00
2022-10-31T08:23:35.316Z,100.00
2022-10-31T08:26:55.016Z,100.00
2022-10-31T08:30:12.690Z,100.00
2022-10-31T08:33:30.352Z,100.00
2022-10-31T08:37:04.511Z,100.00
2022-10-31T08:40:23.750Z,100.00
2022-10-31T08:43:42.751Z,100.00
2022-10-31T08:46:59.979Z,100.00
2022-10-31T08:50:19.797Z,100.00
2022-10-31T08:53:36.732Z,100.00
2022-10-31T08:57:10.746Z,100.00
2022-10-31T09:00:38.837Z,100.00
2022-10-31T09:03:56.743Z,100.00
2022-10-31T09:07:24.454Z,100.00
2022-10-31T09:10:44.650Z,100.00
2022-10-31T09:14:07.505Z,100.00
2022-10-31T09:24:01.877Z,100.00
2022-10-31T09:27:20.282Z,96.83
2022-10-31T09:30:40.070Z,94.72
2022-10-31T09:38:29.532Z,92.57
2022-10-31T09:42:02.258Z,91.13
2022-10-31T09:45:28.049Z,95.16
2022-10-31T09:49:29.318Z,91.78
2022-10-31T09:52:53.091Z,90.31
2022-10-31T09:56:12.455Z,88.02
2022-10-31T09:59:35.931Z,89.61
2022-10-31T10:02:57.018Z,88.77
2022-10-31T10:06:20.139Z,87.71
2022-10-31T10:09:39.042Z,85.14
2022-10-31T10:13:32.483Z,86.34
2022-10-31T10:17:02.557Z,85.10
2022-10-31T10:23:51.129Z,80.30
2022-10-31T10:27:16.878Z,81.69
2022-10-31T10:30:38.645Z,81.29
2022-10-31T10:34:04.423Z,80.67
2022-10-31T10:37:53.202Z,79.42
2022-10-31T10:41:14.861Z,80.46
2022-10-31T10:44:46.005Z,78.03
2022-10-31T10:48:07.013Z,78.35
2022-10-31T10:54:57.747Z,78.16
2022-10-31T10:58:16.793Z,79.55
2022-10-31T11:01:38.082Z,80.73
2022-10-31T11:04:57.990Z,80.63
2022-10-31T11:08:16.505Z,81.89
2022-10-31T11:11:38.006Z,84.58
2022-10-31T11:15:09.292Z,84.18
2022-10-31T11:18:30.616Z,86.28
2022-10-31T11:21:52.881Z,82.85
2022-10-31T11:25:06.716Z,83.14
2022-10-31T11:28:24.863Z,84.92
2022-10-31T11:31:43.753Z,82.33
2022-10-31T11:35:00.580Z,81.62
2022-10-31T11:38:25.960Z,84.66
2022-10-31T11:41:45.655Z,81.88
2022-10-31T11:45:03.817Z,81.27
2022-10-31T11:48:28.821Z,81.55
2022-10-31T11:51:46.946Z,79.84
2022-10-31T11:55:07.771Z,79.38
2022-10-31T11:58:37.589Z,80.67
2022-10-31T12:02:10.984Z,81.35
2022-10-31T12:08:58.807Z,83.13
2022-10-31T12:12:59.022Z,84.50
2022-10-31T12:16:23.827Z,85.19
2022-10-31T12:23:12.282Z,81.94
2022-10-31T12:26:36.532Z,83.60
2022-10-31T12:30:50.357Z,82.97
2022-10-31T12:34:54.021Z,82.97
2022-10-31T12:38:46.436Z,82.02
2022-10-31T12:42:15.670Z,82.69
2022-10-31T12:45:56.639Z,82.20
2022-10-31T12:49:32.544Z,82.57
2022-10-31T12:53:13.072Z,81.96
2022-10-31T12:56:49.704Z,82.19
2022-10-31T13:00:11.915Z,82.79
2022-10-31T13:03:51.557Z,81.81
2022-10-31T13:07:16.745Z,82.54
2022-10-31T13:10:45.513Z,85.04
2022-10-31T13:14:09.656Z,87.00
2022-10-31T13:17:38.105Z,86.46
2022-10-31T13:21:02.569Z,84.30
2022-10-31T13:24:28.295Z,83.89
2022-10-31T13:27:58.126Z,83.71
2022-10-31T13:31:16.779Z,83.69
2022-10-31T13:34:40.743Z,82.55
2022-10-31T13:38:08.382Z,83.38
2022-10-31T13:41:47.653Z,83.53
2022-10-31T13:45:06.566Z,85.69
2022-10-31T13:48:53.319Z,85.36
2022-10-31T13:52:32.752Z,88.78
2022-10-31T13:55:57.773Z,86.85
2022-10-31T13:59:34.002Z,88.93
2022-10-31T14:02:58.326Z,89.47
2022-10-31T14:06:27.885Z,91.23
2022-10-31T14:09:50.081Z,91.27
2022-10-31T14:13:15.582Z,88.88
2022-10-31T14:16:40.410Z,86.98
2022-10-31T14:20:49.693Z,89.13
2022-10-31T14:24:47.233Z,92.35
2022-10-31T14:37:14.210Z,95.57
2022-10-31T14:44:27.410Z,96.51
2022-10-31T14:48:07.091Z,99.16
2022-10-31T14:51:30.508Z,97.91
2022-10-31T14:54:50.940Z,98.67
2022-10-31T14:58:14.043Z,99.74
2022-10-31T15:01:45.230Z,100.00
2022-10-31T15:09:54.531Z,100.00
2022-10-31T15:13:34.197Z,100.00
2022-10-31T15:17:02.035Z,100.00
2022-10-31T15:20:30.791Z,100.00
2022-10-31T15:23:57.535Z,100.00
2022-10-31T15:27:26.659Z,100.00
2022-10-31T15:30:46.730Z,100.00
2022-10-31T15:34:09.839Z,100.00
2022-10-31T15:37:33.511Z,100.00
2022-10-31T15:40:53.586Z,100.00
2022-10-31T15:44:19.309Z,100.00
2022-10-31T15:47:37.472Z,100.00
2022-10-31T15:50:58.236Z,100.00
2022-10-31T15:54:24.201Z,100.00
2022-10-31T15:57:47.252Z,100.00
2022-10-31T16:01:12.619Z,100.00
2022-10-31T16:04:34.007Z,100.00
2022-10-31T16:07:57.377Z,100.00
2022-10-31T16:11:33.664Z,100.00
2022-10-31T16:14:57.330Z,100.00
2022-10-31T16:18:15.941Z,100.00
2022-10-31T16:21:40.577Z,100.00
2022-10-31T16:25:04.891Z,100.00
2022-10-31T16:28:31.966Z,100.00
2022-10-31T16:31:49.631Z,100.00
2022-10-31T16:39:00.774Z,100.00
2022-10-31T16:42:37.874Z,100.00
2022-10-31T16:46:04.987Z,100.00
2022-10-31T16:49:26.720Z,100.00
2022-10-31T16:53:08.339Z,100.00
2022-10-31T16:56:09.250Z,100.00
2022-10-31T16:59:27.751Z,100.00
2022-10-31T17:03:08.276Z,100.00
2022-10-31T17:06:33.997Z,100.00
2022-10-31T17:10:08.124Z,100.00
2022-10-31T17:13:39.118Z,100.00
2022-10-31T17:17:00.667Z,100.00
2022-10-31T17:20:32.120Z,100.00
2022-10-31T17:24:03.761Z,100.00
2022-10-31T17:27:32.228Z,100.00
2022-10-31T17:30:54.458Z,100.00
2022-10-31T17:34:16.295Z,100.00
2022-10-31T17:37:53.033Z,100.00
2022-10-31T17:41:19.309Z,100.00
2022-10-31T17:44:42.092Z,100.00
2022-10-31T17:48:03.382Z,100.00
2022-10-31T17:51:27.032Z,100.00
2022-10-31T17:54:51.829Z,100.00
2022-10-31T17:58:24.202Z,100.00
2022-10-31T18:01:50.713Z,100.00
2022-10-31T18:05:07.707Z,100.00
2022-10-31T18:08:49.691Z,100.00
2022-10-31T18:12:13.183Z,100.00
2022-10-31T18:15:41.048Z,100.00
2022-10-31T18:19:08.220Z,100.00
2022-10-31T18:22:27.185Z,100.00
2022-10-31T18:25:47.430Z,100.00
2022-10-31T18:29:11.646Z,100.00
2022-10-31T18:32:30.923Z,100.00
2022-10-31T18:35:58.245Z,100.00
2022-10-31T18:39:19.127Z,100.00
2022-10-31T18:42:41.032Z,100.00
2022-10-31T18:46:05.131Z,100.00
2022-10-31T18:49:26.329Z,100.00
2022-10-31T18:52:47.447Z,100.00
2022-10-31T18:56:04.062Z,100.00
2022-10-31T18:59:23.582Z,100.00
2022-10-31T19:02:45.519Z,100.00
2022-10-31T19:06:17.879Z,100.00
2022-10-31T19:09:43.334Z,100.00
2022-10-31T19:13:05.201Z,100.00
2022-10-31T19:16:47.114Z,100.00
2022-10-31T19:20:17.454Z,100.00
2022-10-31T19:23:55.807Z,100.00
2022-10-31T19:27:12.818Z,100.00
2022-10-31T19:30:36.744Z,100.00
2022-10-31T19:34:07.451Z,100.00
2022-10-31T19:37:26.749Z,100.00
2022-10-31T19:40:53.191Z,100.00
2022-10-31T19:44:24.397Z,100.00
2022-10-31T19:47:46.561Z,100.00
2022-10-31T19:51:16.342Z,100.00
2022-10-31T19:54:36.048Z,100.00
2022-10-31T19:58:03.200Z,100.00
2022-10-31T20:01:29.240Z,100.00
2022-10-31T20:04:50.015Z,100.00
2022-10-31T20:08:08.500Z,100.00
2022-10-31T20:11:30.961Z,100.00
2022-10-31T20:15:00.575Z,100.00
2022-10-31T20:18:20.577Z,100.00
2022-10-31T20:21:55.687Z,100.00
2022-10-31T20:25:21.525Z,100.00
2022-10-31T20:28:49.497Z,100.00
2022-10-31T20:32:10.838Z,100.00
2022-10-31T20:35:32.488Z,100.00
2022-10-31T20:39:05.791Z,100.00
2022-10-31T20:42:26.694Z,100.00
2022-10-31T20:45:45.440Z,100.00
2022-10-31T20:49:13.746Z,100.00
2022-10-31T20:52:31.696Z,100.00
2022-10-31T20:55:54.129Z,100.00
2022-10-31T20:59:17.471Z,100.00
2022-10-31T21:03:01.821Z,100.00
2022-10-31T21:07:16.323Z,100.00
2022-10-31T21:10:07.511Z,100.00
2022-10-31T21:13:24.717Z,100.00
2022-10-31T21:16:45.487Z,100.00
2022-10-31T21:20:11.746Z,100.00
2022-10-31T21:23:28.254Z,100.00
2022-10-31T21:26:49.899Z,100.00
2022-10-31T21:30:06.735Z,100.00
2022-10-31T21:33:23.521Z,100.00
2022-10-31T21:36:40.117Z,100.00
2022-10-31T21:39:56.690Z,100.00
2022-10-31T21:43:12.928Z,100.00
2022-10-31T21:46:31.777Z,100.00
2022-10-31T21:49:48.173Z,100.00
2022-10-31T21:53:06.618Z,100.00
2022-10-31T21:56:22.875Z,100.00
2022-10-31T21:59:41.482Z,100.00
2022-10-31T22:02:57.810Z,100.00
2022-10-31T22:06:17.123Z,100.00
2022-10-31T22:09:31.328Z,100.00
2022-10-31T22:12:48.192Z,100.00
2022-10-31T22:16:07.535Z,100.00
2022-10-31T22:19:21.894Z,100.00
2022-10-31T22:22:37.838Z,100.00
2022-10-31T22:25:54.302Z,100.00
2022-10-31T22:29:15.045Z,100.00
2022-10-31T22:32:32.121Z,100.00
2022-10-31T22:35:48.344Z,100.00
2022-10-31T22:39:05.178Z,100.00
2022-10-31T22:42:21.435Z,100.00
2022-10-31T22:45:37.527Z,100.00
2022-10-31T22:48:56.633Z,100.00
2022-10-31T22:52:12.938Z,100.00
2022-10-31T22:55:29.895Z,100.00
2022-10-31T22:58:47.495Z,100.00
2022-10-31T23:02:07.204Z,100.00
2022-10-31T23:05:24.811Z,100.00
2022-10-31T23:08:43.499Z,100.00
2022-10-31T23:12:01.459Z,100.00
2022-10-31T23:15:18.884Z,100.00
2022-10-31T23:18:49.820Z,100.00
2022-10-31T23:22:05.294Z,100.00
2022-10-31T23:25:35.322Z,100.00
2022-10-31T23:28:53.573Z,100.00
2022-10-31T23:32:11.635Z,100.00
2022-10-31T23:35:28.154Z,100.00
2022-10-31T23:38:46.658Z,100.00
2022-10-31T23:42:03.202Z,100.00
2022-10-31T23:45:20.562Z,100.00
2022-10-31T23:48:36.648Z,100.00
2022-10-31T23:51:52.824Z,100.00
2022-10-31T23:55:08.991Z,100.00
2022-10-31T23:58:25.099Z,100.00
